createdAt,value
2023-12-23T00:00:32.376Z,1026.00
2023-12-23T00:01:32.948Z,1027.00
2023-12-23T00:02:32.328Z,1028.00
2023-12-23T00:03:32.401Z,1027.00
2023-12-23T00:04:32.354Z,1025.00
2023-12-23T00:05:32.342Z,1027.00
2023-12-23T00:06:32.293Z,1026.00
2023-12-23T00:07:32.279Z,1024.00
2023-12-23T00:08:32.306Z,1026.00
2023-12-23T00:09:32.263Z,1025.00
2023-12-23T00:10:32.300Z,1026.00
2023-12-23T00:11:32.243Z,1029.00
2023-12-23T00:12:32.530Z,1032.00
2023-12-23T00:13:32.229Z,1028.00
2023-12-23T00:14:32.219Z,1027.00
2023-12-23T00:15:32.235Z,1026.00
2023-12-23T00:16:32.219Z,1025.00
2023-12-23T00:17:32.498Z,1020.00
2023-12-23T00:18:32.283Z,1020.00
2023-12-23T00:19:32.295Z,1018.00
2023-12-23T00:20:32.183Z,1017.00
2023-12-23T00:21:32.245Z,1014.00
2023-12-23T00:22:32.150Z,1015.00
2023-12-23T00:23:32.147Z,1017.00
2023-12-23T00:24:32.173Z,1018.00
2023-12-23T00:25:33.187Z,1015.00
2023-12-23T00:26:32.113Z,1013.00
2023-12-23T00:27:32.111Z,1012.00
2023-12-23T00:28:32.109Z,1013.00
2023-12-23T00:29:32.101Z,1014.00
2023-12-23T00:30:32.162Z,1018.00
2023-12-23T00:31:32.098Z,1017.00
2023-12-23T00:32:32.095Z,1018.00
2023-12-23T00:33:32.071Z,1021.00
2023-12-23T00:34:32.055Z,1021.00
2023-12-23T00:35:32.058Z,1019.00
2023-12-23T00:36:32.047Z,1020.00
2023-12-23T00:37:32.046Z,1020.00
2023-12-23T00:38:32.015Z,1020.00
2023-12-23T00:39:32.030Z,1019.00
2023-12-23T00:40:32.000Z,1018.00
2023-12-23T00:41:32.002Z,1019.00
2023-12-23T00:42:31.976Z,1021.00
2023-12-23T00:43:31.991Z,1023.00
2023-12-23T00:44:31.959Z,1022.00
2023-12-23T00:45:31.959Z,1020.00
2023-12-23T00:46:31.953Z,1021.00
2023-12-23T00:47:35.393Z,1019.00
2023-12-23T00:48:33.037Z,1019.00
2023-12-23T00:49:31.982Z,1018.00
2023-12-23T00:50:31.921Z,1018.00
2023-12-23T00:51:31.911Z,1021.00
2023-12-23T00:52:31.891Z,1019.00
2023-12-23T00:53:31.886Z,1017.00
2023-12-23T00:54:31.896Z,1015.00
2023-12-23T00:55:31.872Z,1015.00
2023-12-23T00:56:31.865Z,1016.00
2023-12-23T00:57:31.843Z,1018.00
2023-12-23T00:58:31.921Z,1019.00
2023-12-23T00:59:31.855Z,1020.00
2023-12-23T01:00:31.829Z,1021.00
2023-12-23T01:01:31.855Z,1016.00
2023-12-23T01:02:31.801Z,1012.00
2023-12-23T01:03:31.825Z,1013.00
2023-12-23T01:04:31.777Z,1011.00
2023-12-23T01:05:31.819Z,1012.00
2023-12-23T01:06:31.843Z,1013.00
2023-12-23T01:07:31.806Z,1010.00
2023-12-23T01:08:31.757Z,1009.00
2023-12-23T01:09:31.741Z,1008.00
2023-12-23T01:10:31.748Z,1008.00
2023-12-23T01:11:31.725Z,1008.00
2023-12-23T01:12:31.718Z,1009.00
2023-12-23T01:13:31.703Z,1010.00
2023-12-23T01:14:31.710Z,1010.00
2023-12-23T01:15:31.685Z,1013.00
2023-12-23T01:16:31.696Z,1014.00
2023-12-23T01:17:31.681Z,1017.00
2023-12-23T01:18:31.710Z,1014.00
2023-12-23T01:19:31.660Z,1011.00
2023-12-23T01:20:31.643Z,1009.00
2023-12-23T01:21:31.642Z,1009.00
2023-12-23T01:22:31.624Z,1009.00
2023-12-23T01:23:31.618Z,1009.00
2023-12-23T01:24:31.615Z,1011.00
2023-12-23T01:25:31.611Z,1013.00
2023-12-23T01:26:31.582Z,1014.00
2023-12-23T01:27:31.574Z,1015.00
2023-12-23T01:28:31.564Z,1017.00
2023-12-23T01:29:31.579Z,1016.00
2023-12-23T01:30:31.605Z,1015.00
2023-12-23T01:31:31.551Z,1014.00
2023-12-23T01:32:31.616Z,1017.00
2023-12-23T01:33:31.719Z,1016.00
2023-12-23T01:34:31.529Z,1016.00
2023-12-23T01:35:31.510Z,1017.00
2023-12-23T01:36:31.502Z,1016.00
2023-12-23T01:37:31.534Z,1015.00
2023-12-23T01:38:31.487Z,1016.00
2023-12-23T01:39:31.469Z,1019.00
2023-12-23T01:40:31.456Z,1021.00
2023-12-23T01:41:31.468Z,1019.00
2023-12-23T01:42:31.452Z,1018.00
2023-12-23T01:43:31.444Z,1018.00
2023-12-23T01:44:31.432Z,1015.00
2023-12-23T01:45:34.181Z,1014.00
2023-12-23T01:46:31.401Z,1012.00
2023-12-23T01:47:31.519Z,1009.00
2023-12-23T01:48:31.521Z,1007.00
2023-12-23T01:49:31.383Z,1009.00
2023-12-23T01:50:31.392Z,1012.00
2023-12-23T01:51:31.379Z,1013.00
2023-12-23T01:52:31.364Z,1011.00
2023-12-23T01:53:31.358Z,1010.00
2023-12-23T01:54:31.353Z,1008.00
2023-12-23T01:55:31.363Z,1007.00
2023-12-23T01:56:31.321Z,1006.00
2023-12-23T01:57:31.339Z,1006.00
2023-12-23T01:58:31.304Z,1007.00
2023-12-23T01:59:31.306Z,1007.00
2023-12-23T02:00:31.336Z,1008.00
2023-12-23T02:01:31.393Z,1009.00
2023-12-23T02:02:31.323Z,1009.00
2023-12-23T02:03:31.287Z,1007.00
2023-12-23T02:04:31.268Z,1007.00
2023-12-23T02:05:31.397Z,1006.00
2023-12-23T02:06:31.266Z,1007.00
2023-12-23T02:07:31.238Z,1011.00
2023-12-23T02:08:31.227Z,1014.00
2023-12-23T02:09:31.205Z,1015.00
2023-12-23T02:10:31.206Z,1016.00
2023-12-23T02:11:31.210Z,1015.00
2023-12-23T02:12:41.207Z,1017.00
2023-12-23T02:13:31.198Z,1015.00
2023-12-23T02:14:31.182Z,1013.00
2023-12-23T02:15:31.162Z,1012.00
2023-12-23T02:16:31.147Z,1012.00
2023-12-23T02:17:36.182Z,1013.00
2023-12-23T02:18:31.188Z,1011.00
2023-12-23T02:19:31.126Z,1012.00
2023-12-23T02:20:31.160Z,1008.00
2023-12-23T02:21:31.105Z,1008.00
2023-12-23T02:22:31.123Z,1009.00
2023-12-23T02:23:31.104Z,1008.00
2023-12-23T02:24:31.096Z,1004.00
2023-12-23T02:25:31.075Z,1006.00
2023-12-23T02:26:31.075Z,1006.00
2023-12-23T02:27:31.068Z,1007.00
2023-12-23T02:28:31.057Z,1007.00
2023-12-23T02:29:31.052Z,1008.00
2023-12-23T02:30:31.104Z,1006.00
2023-12-23T02:31:31.008Z,1002.00
2023-12-23T02:32:31.071Z,1003.00
2023-12-23T02:33:31.159Z,1003.00
2023-12-23T02:34:31.005Z,1004.00
2023-12-23T02:35:30.973Z,1008.00
2023-12-23T02:36:30.984Z,1007.00
2023-12-23T02:37:30.969Z,1006.00
2023-12-23T02:38:30.957Z,1005.00
2023-12-23T02:39:30.960Z,1006.00
2023-12-23T02:40:30.943Z,1005.00
2023-12-23T02:41:30.940Z,1001.00
2023-12-23T02:42:30.916Z,1002.00
2023-12-23T02:43:30.926Z,1003.00
2023-12-23T02:44:30.909Z,1005.00
2023-12-23T02:45:30.899Z,1003.00
2023-12-23T02:46:30.903Z,1001.00
2023-12-23T02:47:30.911Z,1000.00
2023-12-23T02:48:30.953Z,1001.00
2023-12-23T02:49:30.864Z,1000.00
2023-12-23T02:50:30.850Z,1003.00
2023-12-23T02:51:30.834Z,1004.00
2023-12-23T02:52:30.858Z,1003.00
2023-12-23T02:53:30.875Z,1000.00
2023-12-23T02:54:30.820Z,999.00
2023-12-23T02:55:30.795Z,998.00
2023-12-23T02:56:30.800Z,999.00
2023-12-23T02:57:30.796Z,1000.00
2023-12-23T02:58:30.779Z,1001.00
2023-12-23T02:59:30.859Z,1002.00
2023-12-23T03:00:30.762Z,1002.00
2023-12-23T03:01:30.762Z,1003.00
2023-12-23T03:02:30.741Z,1005.00
2023-12-23T03:03:30.756Z,1007.00
2023-12-23T03:04:30.738Z,1009.00
2023-12-23T03:05:30.771Z,1010.00
2023-12-23T03:06:30.724Z,1009.00
2023-12-23T03:07:30.696Z,1009.00
2023-12-23T03:08:30.703Z,1006.00
2023-12-23T03:09:30.683Z,1006.00
2023-12-23T03:10:30.683Z,1003.00
2023-12-23T03:11:30.665Z,1003.00
2023-12-23T03:12:30.665Z,999.00
2023-12-23T03:13:30.642Z,998.00
2023-12-23T03:14:30.665Z,999.00
2023-12-23T03:15:30.636Z,998.00
2023-12-23T03:16:30.627Z,998.00
2023-12-23T03:17:30.661Z,999.00
2023-12-23T03:18:30.675Z,998.00
2023-12-23T03:19:30.604Z,995.00
2023-12-23T03:20:30.582Z,998.00
2023-12-23T03:21:30.583Z,997.00
2023-12-23T03:22:30.565Z,995.00
2023-12-23T03:23:30.593Z,991.00
2023-12-23T03:24:30.549Z,993.00
2023-12-23T03:25:30.572Z,994.00
2023-12-23T03:26:30.547Z,993.00
2023-12-23T03:27:30.521Z,996.00
2023-12-23T03:28:30.528Z,997.00
2023-12-23T03:29:30.505Z,998.00
2023-12-23T03:30:30.588Z,998.00
2023-12-23T03:31:30.483Z,998.00
2023-12-23T03:32:30.513Z,995.00
2023-12-23T03:33:30.530Z,995.00
2023-12-23T03:34:30.480Z,991.00
2023-12-23T03:35:30.440Z,992.00
2023-12-23T03:36:30.453Z,991.00
2023-12-23T03:37:30.432Z,990.00
2023-12-23T03:38:30.440Z,992.00
2023-12-23T03:39:30.426Z,992.00
2023-12-23T03:40:30.422Z,993.00
2023-12-23T03:41:30.424Z,989.00
2023-12-23T03:42:30.389Z,989.00
2023-12-23T03:43:30.394Z,992.00
2023-12-23T03:44:30.374Z,993.00
2023-12-23T03:45:30.360Z,989.00
2023-12-23T03:46:30.371Z,990.00
2023-12-23T03:47:30.446Z,989.00
2023-12-23T03:48:30.411Z,990.00
2023-12-23T03:49:30.346Z,991.00
2023-12-23T03:50:30.327Z,991.00
2023-12-23T03:51:30.311Z,991.00
2023-12-23T03:52:30.308Z,991.00
2023-12-23T03:53:30.348Z,990.00
2023-12-23T03:54:30.299Z,990.00
2023-12-23T03:55:30.349Z,989.00
2023-12-23T03:56:30.277Z,990.00
2023-12-23T03:57:30.264Z,988.00
2023-12-23T03:58:30.305Z,987.00
2023-12-23T03:59:30.315Z,989.00
2023-12-23T04:00:30.236Z,995.00
2023-12-23T04:01:30.237Z,992.00
2023-12-23T04:02:30.223Z,991.00
2023-12-23T04:03:30.246Z,989.00
2023-12-23T04:04:30.987Z,989.00
2023-12-23T04:05:30.199Z,990.00
2023-12-23T04:06:30.203Z,988.00
2023-12-23T04:07:30.198Z,988.00
2023-12-23T04:08:30.212Z,987.00
2023-12-23T04:09:30.157Z,989.00
2023-12-23T04:10:30.160Z,989.00
2023-12-23T04:11:30.164Z,987.00
2023-12-23T04:12:30.142Z,986.00
2023-12-23T04:13:30.127Z,986.00
2023-12-23T04:14:30.154Z,982.00
2023-12-23T04:15:30.103Z,982.00
2023-12-23T04:16:30.108Z,983.00
2023-12-23T04:17:30.121Z,986.00
2023-12-23T04:18:30.204Z,985.00
2023-12-23T04:19:30.068Z,985.00
2023-12-23T04:20:30.113Z,984.00
2023-12-23T04:21:30.081Z,985.00
2023-12-23T04:22:30.048Z,987.00
2023-12-23T04:23:30.103Z,985.00
2023-12-23T04:24:30.042Z,985.00
2023-12-23T04:25:30.023Z,983.00
2023-12-23T04:26:35.058Z,985.00
2023-12-23T04:27:30.004Z,988.00
2023-12-23T04:28:29.995Z,985.00
2023-12-23T04:29:29.989Z,983.00
2023-12-23T04:30:30.028Z,981.00
2023-12-23T04:31:30.014Z,979.00
2023-12-23T04:32:30.064Z,979.00
2023-12-23T04:33:30.014Z,979.00
2023-12-23T04:34:29.958Z,980.00
2023-12-23T04:35:29.924Z,981.00
2023-12-23T04:36:34.971Z,981.00
2023-12-23T04:37:29.915Z,981.00
2023-12-23T04:38:29.906Z,980.00
2023-12-23T04:39:29.922Z,979.00
2023-12-23T04:40:29.886Z,980.00
2023-12-23T04:41:29.886Z,977.00
2023-12-23T04:42:29.890Z,977.00
2023-12-23T04:43:29.855Z,977.00
2023-12-23T04:44:29.856Z,979.00
2023-12-23T04:45:29.855Z,982.00
2023-12-23T04:46:29.866Z,983.00
2023-12-23T04:47:29.836Z,985.00
2023-12-23T04:48:29.870Z,987.00
2023-12-23T04:49:29.809Z,986.00
2023-12-23T04:50:29.817Z,985.00
2023-12-23T04:51:29.783Z,984.00
2023-12-23T04:52:29.793Z,984.00
2023-12-23T04:53:29.811Z,984.00
2023-12-23T04:54:29.789Z,981.00
2023-12-23T04:55:29.750Z,982.00
2023-12-23T04:56:29.780Z,980.00
2023-12-23T04:57:29.733Z,980.00
2023-12-23T04:58:29.735Z,979.00
2023-12-23T04:59:29.774Z,978.00
2023-12-23T05:00:29.712Z,975.00
2023-12-23T05:01:29.765Z,971.00
2023-12-23T05:02:29.696Z,968.00
2023-12-23T05:03:29.737Z,972.00
2023-12-23T05:04:29.676Z,972.00
2023-12-23T05:05:29.729Z,975.00
2023-12-23T05:06:29.723Z,976.00
2023-12-23T05:07:29.644Z,977.00
2023-12-23T05:08:29.725Z,976.00
2023-12-23T05:09:29.638Z,977.00
2023-12-23T05:10:29.642Z,980.00
2023-12-23T05:11:29.611Z,983.00
2023-12-23T05:12:29.611Z,979.00
2023-12-23T05:13:29.640Z,977.00
2023-12-23T05:14:29.594Z,977.00
2023-12-23T05:15:29.584Z,978.00
2023-12-23T05:16:29.582Z,978.00
2023-12-23T05:17:29.679Z,976.00
2023-12-23T05:18:29.647Z,977.00
2023-12-23T05:19:29.534Z,975.00
2023-12-23T05:20:29.560Z,974.00
2023-12-23T05:21:34.540Z,971.00
2023-12-23T05:22:29.519Z,973.00
2023-12-23T05:23:29.525Z,970.00
2023-12-23T05:24:29.525Z,970.00
2023-12-23T05:25:29.491Z,969.00
2023-12-23T05:26:29.549Z,967.00
2023-12-23T05:27:29.535Z,968.00
2023-12-23T05:28:29.458Z,966.00
2023-12-23T05:29:29.475Z,965.00
2023-12-23T05:30:29.499Z,964.00
2023-12-23T05:31:29.453Z,964.00
2023-12-23T05:32:32.192Z,962.00
2023-12-23T05:33:29.528Z,962.00
2023-12-23T05:34:29.414Z,963.00
2023-12-23T05:35:29.459Z,963.00
2023-12-23T05:36:29.416Z,963.00
2023-12-23T05:37:29.384Z,962.00
2023-12-23T05:38:29.477Z,964.00
2023-12-23T05:39:29.369Z,962.00
2023-12-23T05:40:29.392Z,963.00
2023-12-23T05:41:29.354Z,963.00
2023-12-23T05:42:29.354Z,963.00
2023-12-23T05:43:29.350Z,963.00
2023-12-23T05:44:29.398Z,961.00
2023-12-23T05:45:29.335Z,959.00
2023-12-23T05:46:29.320Z,959.00
2023-12-23T05:47:29.362Z,959.00
2023-12-23T05:48:29.361Z,961.00
2023-12-23T05:49:29.304Z,959.00
2023-12-23T05:50:29.355Z,958.00
2023-12-23T05:51:34.334Z,956.00
2023-12-23T05:52:29.266Z,957.00
2023-12-23T05:53:29.346Z,957.00
2023-12-23T05:54:29.251Z,958.00
2023-12-23T05:55:29.397Z,958.00
2023-12-23T05:56:34.389Z,958.00
2023-12-23T05:57:29.203Z,957.00
2023-12-23T05:58:29.251Z,956.00
2023-12-23T05:59:29.203Z,957.00
2023-12-23T06:00:29.204Z,959.00
2023-12-23T06:01:39.286Z,958.00
2023-12-23T06:02:29.225Z,958.00
2023-12-23T06:03:29.185Z,959.00
2023-12-23T06:04:29.204Z,960.00
2023-12-23T06:05:29.184Z,956.00
2023-12-23T06:06:29.188Z,956.00
2023-12-23T06:07:29.125Z,955.00
2023-12-23T06:08:29.108Z,956.00
2023-12-23T06:09:29.129Z,959.00
2023-12-23T06:10:30.398Z,961.00
2023-12-23T06:11:29.213Z,959.00
2023-12-23T06:12:29.156Z,960.00
2023-12-23T06:13:29.147Z,958.00
2023-12-23T06:14:29.162Z,960.00
2023-12-23T06:15:29.140Z,962.00
2023-12-23T06:16:29.138Z,963.00
2023-12-23T06:17:29.372Z,961.00
2023-12-23T06:18:29.197Z,961.00
2023-12-23T06:19:29.089Z,964.00
2023-12-23T06:20:29.132Z,963.00
2023-12-23T06:21:34.088Z,961.00
2023-12-23T06:22:29.066Z,961.00
2023-12-23T06:23:29.081Z,960.00
2023-12-23T06:24:29.060Z,961.00
2023-12-23T06:25:29.036Z,961.00
2023-12-23T06:26:29.064Z,962.00
2023-12-23T06:27:29.008Z,962.00
2023-12-23T06:28:29.015Z,961.00
2023-12-23T06:29:34.024Z,962.00
2023-12-23T06:30:29.037Z,962.00
2023-12-23T06:31:28.995Z,961.00
2023-12-23T06:32:29.151Z,959.00
2023-12-23T06:33:29.070Z,961.00
2023-12-23T06:34:28.998Z,961.00
2023-12-23T06:35:28.997Z,959.00
2023-12-23T06:36:28.937Z,955.00
2023-12-23T06:37:28.933Z,956.00
2023-12-23T06:38:28.963Z,957.00
2023-12-23T06:39:28.926Z,954.00
2023-12-23T06:40:28.897Z,953.00
2023-12-23T06:41:28.891Z,953.00
2023-12-23T06:42:28.902Z,953.00
2023-12-23T06:43:45.472Z,955.00
2023-12-23T06:44:29.899Z,954.00
2023-12-23T06:45:29.965Z,954.00
2023-12-23T06:46:28.860Z,954.00
2023-12-23T06:47:29.033Z,953.00
2023-12-23T06:48:31.240Z,950.00
2023-12-23T06:49:29.104Z,950.00
2023-12-23T06:50:28.851Z,951.00
2023-12-23T06:51:28.838Z,950.00
2023-12-23T06:52:28.851Z,948.00
2023-12-23T06:53:28.842Z,950.00
2023-12-23T06:54:28.780Z,951.00
2023-12-23T06:55:28.772Z,950.00
2023-12-23T06:56:28.763Z,950.00
2023-12-23T06:57:28.764Z,948.00
2023-12-23T06:58:28.764Z,950.00
2023-12-23T06:59:28.761Z,950.00
2023-12-23T07:00:28.727Z,951.00
2023-12-23T07:01:28.746Z,954.00
2023-12-23T07:02:28.700Z,952.00
2023-12-23T07:03:28.762Z,950.00
2023-12-23T07:04:28.680Z,952.00
2023-12-23T07:05:28.800Z,953.00
2023-12-23T07:06:28.669Z,954.00
2023-12-23T07:07:28.696Z,954.00
2023-12-23T07:08:28.659Z,954.00
2023-12-23T07:09:28.644Z,952.00
2023-12-23T07:10:28.624Z,949.00
2023-12-23T07:11:28.635Z,949.00
2023-12-23T07:12:28.622Z,947.00
2023-12-23T07:13:28.610Z,945.00
2023-12-23T07:14:28.606Z,947.00
2023-12-23T07:15:28.590Z,947.00
2023-12-23T07:16:28.587Z,945.00
2023-12-23T07:17:38.302Z,945.00
2023-12-23T07:18:29.611Z,946.00
2023-12-23T07:19:28.592Z,948.00
2023-12-23T07:20:28.574Z,949.00
2023-12-23T07:21:28.529Z,945.00
2023-12-23T07:22:28.519Z,946.00
2023-12-23T07:23:28.531Z,945.00
2023-12-23T07:24:28.510Z,945.00
2023-12-23T07:25:28.522Z,942.00
2023-12-23T07:26:28.527Z,940.00
2023-12-23T07:27:28.497Z,941.00
2023-12-23T07:28:28.491Z,942.00
2023-12-23T07:29:28.531Z,943.00
2023-12-23T07:30:28.514Z,940.00
2023-12-23T07:31:28.456Z,942.00
2023-12-23T07:32:28.546Z,942.00
2023-12-23T07:33:28.573Z,945.00
2023-12-23T07:34:28.417Z,944.00
2023-12-23T07:35:28.487Z,939.00
2023-12-23T07:36:28.407Z,939.00
2023-12-23T07:37:28.395Z,939.00
2023-12-23T07:38:28.432Z,937.00
2023-12-23T07:39:28.376Z,940.00
2023-12-23T07:40:31.091Z,940.00
2023-12-23T07:41:28.470Z,939.00
2023-12-23T07:42:28.349Z,941.00
2023-12-23T07:43:28.366Z,940.00
2023-12-23T07:44:28.388Z,940.00
2023-12-23T07:45:28.318Z,940.00
2023-12-23T07:46:28.333Z,941.00
2023-12-23T07:47:28.398Z,942.00
2023-12-23T07:48:28.304Z,942.00
2023-12-23T07:49:28.301Z,940.00
2023-12-23T07:50:28.402Z,937.00
2023-12-23T07:51:28.282Z,938.00
2023-12-23T07:52:28.269Z,938.00
2023-12-23T07:53:28.329Z,941.00
2023-12-23T07:54:28.272Z,941.00
2023-12-23T07:55:28.236Z,938.00
2023-12-23T07:56:28.258Z,937.00
2023-12-23T07:57:28.214Z,941.00
2023-12-23T07:58:28.200Z,940.00
2023-12-23T07:59:28.201Z,943.00
2023-12-23T08:00:28.172Z,942.00
2023-12-23T08:01:28.213Z,939.00
2023-12-23T08:02:28.189Z,939.00
2023-12-23T08:03:28.158Z,939.00
2023-12-23T08:04:28.152Z,937.00
2023-12-23T08:05:28.182Z,935.00
2023-12-23T08:06:28.229Z,931.00
2023-12-23T08:07:28.128Z,929.00
2023-12-23T08:08:28.205Z,932.00
2023-12-23T08:09:28.103Z,931.00
2023-12-23T08:10:28.111Z,930.00
2023-12-23T08:11:28.133Z,927.00
2023-12-23T08:12:28.094Z,924.00
2023-12-23T08:13:28.065Z,925.00
2023-12-23T08:14:28.076Z,926.00
2023-12-23T08:15:28.077Z,927.00
2023-12-23T08:16:28.033Z,926.00
2023-12-23T08:17:28.146Z,928.00
2023-12-23T08:18:28.083Z,924.00
2023-12-23T08:19:28.152Z,926.00
2023-12-23T08:20:28.077Z,928.00
2023-12-23T08:21:28.004Z,927.00
2023-12-23T08:22:27.981Z,926.00
2023-12-23T08:23:28.011Z,926.00
2023-12-23T08:24:27.961Z,925.00
2023-12-23T08:25:27.954Z,925.00
2023-12-23T08:26:28.005Z,926.00
2023-12-23T08:27:27.954Z,928.00
2023-12-23T08:28:27.941Z,926.00
2023-12-23T08:29:28.001Z,926.00
2023-12-23T08:30:27.979Z,929.00
2023-12-23T08:31:27.905Z,932.00
2023-12-23T08:32:28.039Z,931.00
2023-12-23T08:33:27.956Z,929.00
2023-12-23T08:34:27.881Z,929.00
2023-12-23T08:35:27.885Z,927.00
2023-12-23T08:36:27.863Z,927.00
2023-12-23T08:37:27.869Z,927.00
2023-12-23T08:38:27.878Z,928.00
2023-12-23T08:39:27.869Z,929.00
2023-12-23T08:40:27.833Z,930.00
2023-12-23T08:41:27.871Z,929.00
2023-12-23T08:42:27.804Z,928.00
2023-12-23T08:43:27.805Z,929.00
2023-12-23T08:44:27.815Z,927.00
2023-12-23T08:45:27.784Z,927.00
2023-12-23T08:46:27.769Z,926.00
2023-12-23T08:47:27.910Z,922.00
2023-12-23T08:48:27.816Z,921.00
2023-12-23T08:49:27.901Z,921.00
2023-12-23T08:50:27.784Z,920.00
2023-12-23T08:51:27.735Z,919.00
2023-12-23T08:52:27.742Z,919.00
2023-12-23T08:53:27.723Z,916.00
2023-12-23T08:54:27.708Z,917.00
2023-12-23T08:55:27.696Z,920.00
2023-12-23T08:56:27.779Z,920.00
2023-12-23T08:57:27.691Z,922.00
2023-12-23T08:58:27.681Z,925.00
2023-12-23T08:59:27.696Z,926.00
2023-12-23T09:00:27.640Z,927.00
2023-12-23T09:01:27.646Z,923.00
2023-12-23T09:02:28.437Z,924.00
2023-12-23T09:03:27.760Z,923.00
2023-12-23T09:04:27.597Z,924.00
2023-12-23T09:05:27.717Z,924.00
2023-12-23T09:06:27.652Z,924.00
2023-12-23T09:07:27.590Z,922.00
2023-12-23T09:08:27.646Z,922.00
2023-12-23T09:09:27.563Z,922.00
2023-12-23T09:10:27.545Z,922.00
2023-12-23T09:11:27.665Z,921.00
2023-12-23T09:12:27.540Z,919.00
2023-12-23T09:13:27.551Z,920.00
2023-12-23T09:14:27.584Z,920.00
2023-12-23T09:15:27.531Z,921.00
2023-12-23T09:16:27.515Z,919.00
2023-12-23T09:17:28.604Z,916.00
2023-12-23T09:18:27.547Z,916.00
2023-12-23T09:19:27.560Z,917.00
2023-12-23T09:20:27.551Z,917.00
2023-12-23T09:21:27.480Z,918.00
2023-12-23T09:22:27.459Z,915.00
2023-12-23T09:23:27.514Z,915.00
2023-12-23T09:24:27.425Z,917.00
2023-12-23T09:25:27.514Z,915.00
2023-12-23T09:26:27.476Z,915.00
2023-12-23T09:27:27.411Z,916.00
2023-12-23T09:28:27.391Z,918.00
2023-12-23T09:29:27.474Z,918.00
2023-12-23T09:30:27.431Z,916.00
2023-12-23T09:31:27.401Z,917.00
2023-12-23T09:32:27.449Z,918.00
2023-12-23T09:33:27.441Z,916.00
2023-12-23T09:34:27.343Z,913.00
2023-12-23T09:35:27.459Z,912.00
2023-12-23T09:36:27.363Z,909.00
2023-12-23T09:37:27.319Z,912.00
2023-12-23T09:38:27.438Z,912.00
2023-12-23T09:39:27.309Z,913.00
2023-12-23T09:40:27.293Z,910.00
2023-12-23T09:41:27.305Z,909.00
2023-12-23T09:42:27.275Z,907.00
2023-12-23T09:43:27.287Z,908.00
2023-12-23T09:44:27.340Z,905.00
2023-12-23T09:45:27.270Z,905.00
2023-12-23T09:46:27.243Z,906.00
2023-12-23T09:47:27.448Z,908.00
2023-12-23T09:48:27.262Z,909.00
2023-12-23T09:49:27.360Z,910.00
2023-12-23T09:50:27.234Z,909.00
2023-12-23T09:51:27.216Z,910.00
2023-12-23T09:52:27.208Z,911.00
2023-12-23T09:53:27.257Z,911.00
2023-12-23T09:54:27.171Z,913.00
2023-12-23T09:55:27.238Z,913.00
2023-12-23T09:56:27.221Z,911.00
2023-12-23T09:57:27.190Z,912.00
2023-12-23T09:58:27.132Z,911.00
2023-12-23T09:59:27.149Z,914.00
2023-12-23T10:00:27.115Z,915.00
2023-12-23T10:01:27.120Z,911.00
2023-12-23T10:02:27.119Z,912.00
2023-12-23T10:03:27.135Z,913.00
2023-12-23T10:04:27.075Z,913.00
2023-12-23T10:05:27.255Z,913.00
2023-12-23T10:06:27.098Z,913.00
2023-12-23T10:07:27.104Z,912.00
2023-12-23T10:08:27.131Z,914.00
2023-12-23T10:09:27.057Z,913.00
2023-12-23T10:10:27.071Z,911.00
2023-12-23T10:11:27.198Z,911.00
2023-12-23T10:12:27.072Z,910.00
2023-12-23T10:13:26.995Z,908.00
2023-12-23T10:14:27.060Z,907.00
2023-12-23T10:15:27.091Z,907.00
2023-12-23T10:16:27.107Z,908.00
2023-12-23T10:17:27.087Z,909.00
2023-12-23T10:18:27.011Z,905.00
2023-12-23T10:19:27.008Z,904.00
2023-12-23T10:20:26.925Z,904.00
2023-12-23T10:21:26.934Z,905.00
2023-12-23T10:22:26.923Z,906.00
2023-12-23T10:23:26.959Z,906.00
2023-12-23T10:24:26.888Z,905.00
2023-12-23T10:25:26.894Z,906.00
2023-12-23T10:26:26.910Z,907.00
2023-12-23T10:27:26.890Z,907.00
2023-12-23T10:28:26.853Z,907.00
2023-12-23T10:29:26.899Z,907.00
2023-12-23T10:30:26.850Z,907.00
2023-12-23T10:31:26.834Z,904.00
2023-12-23T10:32:26.905Z,906.00
2023-12-23T10:33:26.858Z,906.00
2023-12-23T10:34:26.847Z,907.00
2023-12-23T10:35:26.795Z,909.00
2023-12-23T10:36:26.800Z,912.00
2023-12-23T10:37:26.778Z,911.00
2023-12-23T10:38:26.876Z,913.00
2023-12-23T10:39:26.748Z,912.00
2023-12-23T10:40:29.508Z,910.00
2023-12-23T10:41:26.747Z,909.00
2023-12-23T10:42:26.733Z,909.00
2023-12-23T10:43:26.732Z,907.00
2023-12-23T10:44:26.841Z,907.00
2023-12-23T10:45:26.690Z,906.00
2023-12-23T10:46:26.694Z,904.00
2023-12-23T10:47:26.807Z,903.00
2023-12-23T10:48:26.763Z,906.00
2023-12-23T10:49:26.713Z,907.00
2023-12-23T10:50:26.720Z,906.00
2023-12-23T10:51:26.642Z,905.00
2023-12-23T10:52:26.650Z,904.00
2023-12-23T10:53:26.651Z,903.00
2023-12-23T10:54:26.609Z,901.00
2023-12-23T10:55:26.620Z,900.00
2023-12-23T10:56:26.612Z,904.00
2023-12-23T10:57:26.624Z,903.00
2023-12-23T10:58:26.592Z,902.00
2023-12-23T10:59:26.655Z,901.00
2023-12-23T11:00:26.562Z,901.00
2023-12-23T11:01:29.742Z,899.00
2023-12-23T11:02:26.633Z,898.00
2023-12-23T11:03:26.551Z,898.00
2023-12-23T11:04:26.529Z,901.00
2023-12-23T11:05:26.683Z,900.00
2023-12-23T11:06:26.586Z,899.00
2023-12-23T11:07:26.496Z,896.00
2023-12-23T11:08:26.531Z,897.00
2023-12-23T11:09:26.482Z,900.00
2023-12-23T11:10:26.512Z,900.00
2023-12-23T11:11:26.561Z,898.00
2023-12-23T11:12:26.457Z,898.00
2023-12-23T11:13:26.435Z,899.00
2023-12-23T11:14:26.523Z,899.00
2023-12-23T11:15:26.439Z,897.00
2023-12-23T11:16:26.426Z,898.00
2023-12-23T11:17:26.594Z,894.00
2023-12-23T11:18:26.469Z,894.00
2023-12-23T11:19:26.535Z,892.00
2023-12-23T11:20:26.385Z,890.00
2023-12-23T11:21:26.390Z,892.00
2023-12-23T11:22:26.408Z,896.00
2023-12-23T11:23:26.404Z,894.00
2023-12-23T11:24:26.355Z,893.00
2023-12-23T11:25:26.342Z,893.00
2023-12-23T11:26:26.390Z,893.00
2023-12-23T11:27:26.314Z,892.00
2023-12-23T11:28:26.419Z,893.00
2023-12-23T11:29:26.321Z,894.00
2023-12-23T11:30:26.358Z,897.00
2023-12-23T11:31:26.271Z,899.00
2023-12-23T11:32:26.427Z,898.00
2023-12-23T11:33:26.332Z,899.00
2023-12-23T11:34:26.259Z,898.00
2023-12-23T11:35:26.311Z,895.00
2023-12-23T11:36:26.236Z,893.00
2023-12-23T11:37:26.222Z,894.00
2023-12-23T11:38:26.384Z,891.00
2023-12-23T11:39:26.197Z,892.00
2023-12-23T11:40:26.211Z,895.00
2023-12-23T11:41:26.236Z,897.00
2023-12-23T11:42:26.186Z,898.00
2023-12-23T11:43:26.170Z,900.00
2023-12-23T11:44:26.259Z,901.00
2023-12-23T11:45:26.163Z,898.00
2023-12-23T11:46:26.145Z,896.00
2023-12-23T11:47:26.237Z,897.00
2023-12-23T11:48:26.266Z,899.00
2023-12-23T11:49:26.169Z,897.00
2023-12-23T11:50:26.207Z,898.00
2023-12-23T11:51:26.095Z,896.00
2023-12-23T11:52:26.126Z,897.00
2023-12-23T11:53:26.187Z,894.00
2023-12-23T11:54:26.084Z,895.00
2023-12-23T11:55:26.057Z,895.00
2023-12-23T11:56:26.096Z,892.00
2023-12-23T11:57:26.040Z,890.00
2023-12-23T11:58:26.065Z,890.00
2023-12-23T11:59:26.100Z,891.00
2023-12-23T12:00:26.022Z,890.00
2023-12-23T12:01:26.047Z,891.00
2023-12-23T12:02:26.089Z,890.00
2023-12-23T12:03:26.018Z,890.00
2023-12-23T12:04:26.017Z,889.00
2023-12-23T12:05:26.003Z,892.00
2023-12-23T12:06:26.056Z,889.00
2023-12-23T12:07:25.967Z,888.00
2023-12-23T12:08:26.049Z,887.00
2023-12-23T12:09:25.940Z,886.00
2023-12-23T12:10:25.924Z,885.00
2023-12-23T12:11:25.972Z,890.00
2023-12-23T12:12:25.938Z,892.00
2023-12-23T12:13:25.903Z,891.00
2023-12-23T12:14:25.967Z,890.00
2023-12-23T12:15:25.877Z,891.00
2023-12-23T12:16:25.886Z,889.00
2023-12-23T12:17:26.101Z,887.00
2023-12-23T12:18:26.060Z,890.00
2023-12-23T12:19:25.865Z,891.00
2023-12-23T12:20:25.998Z,889.00
2023-12-23T12:21:25.826Z,890.00
2023-12-23T12:22:48.119Z,890.00